Stena Europe — VSTA3 — position and weather

sailwx.info

Track history (hours):
 
Tides and Currents Weather Stations Pressure Air Temp Water Temp Dewpoint Dewpoint Depression Visibility Wind Speed Wind Dir Waves Ship Positions

Stena Europe

Operator: Stena Line

Last reported at 2017-Sep-20 00:23 UTC. Time now 2017-Sep-20 00:35 UTC.
Position N 52°08' W 005°32'.

Length 149 m; draft 6 m.

Type: Passenger vessel. MMSI: 235004539.

Date/timePositionNaut miles runAvg speedWind from/ knotsBaromVisibWave heightAir tempDewpointWater temp
2017-Sep-20 00:23N 52°08' W 005°32'2 0.4
2017-Sep-19 18:59N 52°08' W 005°35'1018.4
2017-Sep-19 18:27N 52°10' W 005°51'818.4
2017-Sep-19 18:00N 52°12' W 006°03'917.8
2017-Sep-19 17:30N 52°15' W 006°17'2 3.9
2017-Sep-19 17:00N 52°15' W 006°20'0 0.0
2017-Sep-19 16:30N 52°15' W 006°20'0 0.0
2017-Sep-19 16:00N 52°15' W 006°20'0 0.0
2017-Sep-19 15:30N 52°15' W 006°20'3 6.5
2017-Sep-19 15:01N 52°14' W 006°15'918.2
2017-Sep-19 14:30N 52°12' W 006°01'918.5
2017-Sep-19 14:01N 52°10' W 005°46'5 0.9
2017-Sep-19 08:34N 52°09' W 005°38'218.2
2017-Sep-19 08:26N 52°09' W 005°42'818.3
2017-Sep-19 08:00N 52°11' W 005°55'918.4
2017-Sep-19 07:31N 52°13' W 006°09'714.2
2017-Sep-19 07:00N 52°15' W 006°20'0 0.0
2017-Sep-19 06:30N 52°15' W 006°20'0 0.0
2017-Sep-19 06:00N 52°15' W 006°20'0 0.0
2017-Sep-19 05:30N 52°15' W 006°20'0 0.0
2017-Sep-19 05:00N 52°15' W 006°20'0 0.0
2017-Sep-19 04:30N 52°15' W 006°20'0 0.0
2017-Sep-19 04:00N 52°15' W 006°20'0 0.0
2017-Sep-19 03:30N 52°15' W 006°20'0 0.0
2017-Sep-19 03:00N 52°15' W 006°20'510.7
2017-Sep-19 02:30N 52°14' W 006°12'714.1
2017-Sep-19 02:01N 52°12' W 006°01'4 8.7
2017-Sep-19 01:30N 52°11' W 005°54'510.6
2017-Sep-19 01:00N 52°10' W 005°45'713.5
2017-Sep-19 00:31N 52°08' W 005°35'714.0
2017-Sep-19 00:00N 52°06' W 005°24'1 0.3
2017-Sep-18 19:10N 52°07' W 005°25'319.3
2017-Sep-18 19:00N 52°07' W 005°31'918.0
2017-Sep-18 18:31N 52°09' W 005°45'816.6
2017-Sep-18 18:00N 52°12' W 005°58'816.7
2017-Sep-18 17:31N 52°14' W 006°11'611.9
2017-Sep-18 17:00N 52°15' W 006°20'0 0.0
2017-Sep-18 16:30N 52°15' W 006°20'0 0.0
2017-Sep-18 16:00N 52°15' W 006°20'0 0.0
2017-Sep-18 15:30N 52°15' W 006°20'2 4.9
2017-Sep-18 15:00N 52°15' W 006°16'918.2
2017-Sep-18 14:30N 52°13' W 006°02'918.5
2017-Sep-18 14:00N 52°10' W 005°47'1 0.2
2017-Sep-18 08:19N 52°10' W 005°45'618.4
2017-Sep-18 07:59N 52°11' W 005°55'918.5
2017-Sep-18 07:30N 52°13' W 006°09'714.2
2017-Sep-18 07:01N 52°15' W 006°20'0 0.0
2017-Sep-18 06:31N 52°15' W 006°20'0 0.0
2017-Sep-18 06:01N 52°15' W 006°20'0 0.0
2017-Sep-18 05:31N 52°15' W 006°20'0 0.0
2017-Sep-18 05:01N 52°15' W 006°20'0 0.0
2017-Sep-18 04:30N 52°15' W 006°20'0 0.0
2017-Sep-18 04:00N 52°15' W 006°20'0 0.0
2017-Sep-18 03:30N 52°15' W 006°20'0 0.0
2017-Sep-18 03:01N 52°15' W 006°20'5 9.3
2017-Sep-18 02:31N 52°14' W 006°13'816.3
2017-Sep-18 02:00N 52°12' W 005°60'816.2
2017-Sep-18 01:30N 52°10' W 005°47'4 0.6
2017-Sep-17 18:36N 52°09' W 005°40'315.9
2017-Sep-17 18:25N 52°10' W 005°45'615.7
2017-Sep-17 18:00N 52°11' W 005°55'816.0
2017-Sep-17 17:30N 52°13' W 006°08'816.2
2017-Sep-17 17:01N 52°16' W 006°20'0 0.6
2017-Sep-17 16:30N 52°15' W 006°20'0 0.0
2017-Sep-17 16:00N 52°15' W 006°20'0 0.0
2017-Sep-17 15:30N 52°15' W 006°20'1 2.0
2017-Sep-17 15:00N 52°16' W 006°19'918.2
2017-Sep-17 14:30N 52°13' W 006°04'918.7
2017-Sep-17 14:00N 52°11' W 005°50'0 0.1
2017-Sep-17 08:04N 52°10' W 005°50'218.0
2017-Sep-17 07:57N 52°11' W 005°53'818.3
2017-Sep-17 07:30N 52°13' W 006°06'917.9
2017-Sep-17 07:00N 52°16' W 006°19'1 1.1
2017-Sep-17 06:30N 52°15' W 006°20'0 0.0
2017-Sep-17 06:00N 52°15' W 006°20'0 0.0
2017-Sep-17 05:30N 52°15' W 006°20'0 0.0
2017-Sep-17 05:00N 52°15' W 006°20'0 0.0
2017-Sep-17 04:30N 52°15' W 006°20'0 0.0
2017-Sep-17 04:00N 52°15' W 006°20'0 0.0
2017-Sep-17 03:30N 52°15' W 006°20'0 0.0
2017-Sep-17 03:00N 52°15' W 006°20'510.7
2017-Sep-17 02:30N 52°14' W 006°12'713.3
2017-Sep-17 02:00N 52°17' W 006°02'713.5
2017-Sep-17 01:30N 52°19' W 005°52'612.8
2017-Sep-17 01:00N 52°17' W 005°42'713.4
2017-Sep-17 00:29N 52°13' W 005°32'12 2.0
2017-Sep-16 18:21N 52°10' W 005°51'818.3
2017-Sep-16 17:54N 52°13' W 006°04'718.4
2017-Sep-16 17:30N 52°14' W 006°15'3 6.3
2017-Sep-16 17:01N 52°15' W 006°20'0 0.0
2017-Sep-16 16:31N 52°15' W 006°20'0 0.0
2017-Sep-16 16:00N 52°15' W 006°20'0 0.0
2017-Sep-16 15:30N 52°15' W 006°20'611.2
2017-Sep-16 15:00N 52°14' W 006°11'917.8
2017-Sep-16 14:30N 52°12' W 005°57'918.2
2017-Sep-16 14:00N 52°10' W 005°43'4 0.7
2017-Sep-16 08:18N 52°11' W 005°49'518.2
2017-Sep-16 08:00N 52°12' W 005°57'918.1
2017-Sep-16 07:30N 52°14' W 006°12'510.8
2017-Sep-16 07:00N 52°15' W 006°20'0 0.0
2017-Sep-16 06:30N 52°15' W 006°20'0 0.0
2017-Sep-16 06:00N 52°15' W 006°20'0 0.0
2017-Sep-16 05:30N 52°15' W 006°20'0 0.0
2017-Sep-16 05:00N 52°15' W 006°20'0 0.0
2017-Sep-16 04:30N 52°15' W 006°20'0 0.0
2017-Sep-16 04:00N 52°15' W 006°20'0 0.0
2017-Sep-16 03:30N 52°15' W 006°20'0 0.1
2017-Sep-16 03:00N 52°15' W 006°20'611.8
2017-Sep-16 02:30N 52°14' W 006°11'612.4
2017-Sep-16 02:00N 52°12' W 006°01'612.9
2017-Sep-16 01:30N 52°11' W 005°51'613.1
2017-Sep-16 01:00N 52°09' W 005°41'3 0.4
2017-Sep-15 18:40N 52°09' W 005°45'318.7
2017-Sep-15 18:30N 52°10' W 005°50'918.4
2017-Sep-15 18:00N 52°13' W 006°04'918.3
2017-Sep-15 17:30N 52°15' W 006°18'1 2.1
2017-Sep-15 17:01N 52°15' W 006°20'0 0.0
2017-Sep-15 16:31N 52°15' W 006°20'0 0.2
2017-Sep-15 16:01N 52°15' W 006°20'713.0
2017-Sep-15 15:31N 52°14' W 006°10'917.3
2017-Sep-15 15:01N 52°12' W 005°56'917.9
2017-Sep-15 14:31N 52°10' W 005°42'3 0.4
2017-Sep-15 08:33N 52°09' W 005°38'117.4
2017-Sep-15 08:30N 52°09' W 005°39'917.4
2017-Sep-15 08:00N 52°11' W 005°53'917.5
2017-Sep-15 07:31N 52°13' W 006°07'917.2
2017-Sep-15 07:00N 52°16' W 006°20'0 0.5
2017-Sep-15 06:30N 52°15' W 006°20'0 0.0
2017-Sep-15 06:00N 52°15' W 006°20'0 0.0
2017-Sep-15 05:30N 52°15' W 006°20'0 0.0
2017-Sep-15 05:00N 52°15' W 006°20'0 0.0
2017-Sep-15 04:30N 52°15' W 006°20'0 0.0
2017-Sep-15 04:00N 52°15' W 006°20'0 0.0
2017-Sep-15 03:30N 52°15' W 006°20'0 0.0
2017-Sep-15 03:00N 52°15' W 006°20'5 9.8
2017-Sep-15 02:30N 52°14' W 006°13'714.5
2017-Sep-15 02:00N 52°12' W 006°01'714.4
2017-Sep-15 01:30N 52°10' W 005°50'714.2
2017-Sep-15 01:00N 52°09' W 005°38'3 0.5
2017-Sep-14 18:36N 52°09' W 005°43'218.3
2017-Sep-14 18:30N 52°10' W 005°46'918.2
2017-Sep-14 18:00N 52°12' W 006°00'918.2
2017-Sep-14 17:30N 52°14' W 006°14'4 7.4
2017-Sep-14 17:00N 52°15' W 006°20'0 0.0
2017-Sep-14 16:30N 52°15' W 006°20'0 0.0
2017-Sep-14 16:00N 52°15' W 006°20'1 1.3
2017-Sep-14 15:30N 52°16' W 006°19'816.8
2017-Sep-14 15:01N 52°13' W 006°06'917.6
2017-Sep-14 14:31N 52°11' W 005°52'917.3
2017-Sep-14 14:00N 52°09' W 005°39'2 0.3
2017-Sep-14 08:41N 52°08' W 005°36'317.4
2017-Sep-14 08:29N 52°09' W 005°41'817.4
2017-Sep-14 08:01N 52°11' W 005°55'917.3
2017-Sep-14 07:31N 52°13' W 006°08'815.1
2017-Sep-14 07:00N 52°15' W 006°20'0 0.0
2017-Sep-14 06:30N 52°15' W 006°20'0 0.0
2017-Sep-14 06:00N 52°15' W 006°20'0 0.0
2017-Sep-14 05:30N 52°15' W 006°20'0 0.0
2017-Sep-14 05:00N 52°15' W 006°20'0 0.0
2017-Sep-14 04:30N 52°15' W 006°20'0 0.0
2017-Sep-14 04:00N 52°15' W 006°20'0 0.0
2017-Sep-14 03:30N 52°15' W 006°20'0 0.0
2017-Sep-14 03:00N 52°15' W 006°20'4 8.2
2017-Sep-14 02:30N 52°14' W 006°14'815.7
2017-Sep-14 02:01N 52°12' W 006°01'715.0
2017-Sep-14 01:31N 52°10' W 005°50'714.1
2017-Sep-14 01:00N 52°09' W 005°38'2 0.3
2017-Sep-13 18:23N 52°09' W 005°41'718.0
2017-Sep-13 18:00N 52°11' W 005°52'918.3
2017-Sep-13 17:30N 52°13' W 006°06'917.9
2017-Sep-13 17:00N 52°16' W 006°20'0 0.6
2017-Sep-13 16:30N 52°15' W 006°20'0 0.0
2017-Sep-13 16:00N 52°15' W 006°20'2 3.4
2017-Sep-13 15:31N 52°15' W 006°17'816.8
2017-Sep-13 15:01N 52°15' W 006°04'816.3
2017-Sep-13 14:30N 52°14' W 005°50'816.3
2017-Sep-13 14:00N 52°12' W 005°38'4 0.6
2017-Sep-13 08:33N 52°09' W 005°39'117.2
2017-Sep-13 08:28N 52°09' W 005°41'816.7
2017-Sep-13 08:00N 52°11' W 005°54'816.8
2017-Sep-13 07:30N 52°13' W 006°07'917.3
2017-Sep-13 07:01N 52°16' W 006°20'0 0.5
2017-Sep-13 06:30N 52°15' W 006°20'0 0.0
2017-Sep-13 06:00N 52°15' W 006°20'0 0.0
2017-Sep-13 05:31N 52°15' W 006°20'0 0.0
2017-Sep-13 05:00N 52°15' W 006°20'0 0.0
2017-Sep-13 04:30N 52°15' W 006°20'0 0.4
2017-Sep-13 04:01N 52°15' W 006°20'714.5
2017-Sep-13 03:30N 52°14' W 006°09'816.1
2017-Sep-13 03:00N 52°15' W 005°56'612.7
2017-Sep-13 02:30N 52°18' W 005°46'611.9
2017-Sep-13 02:00N 52°21' W 005°38'13 1.9
2017-Sep-12 19:02N 52°08' W 005°35'216.9
2017-Sep-12 18:56N 52°08' W 005°38'717.0
2017-Sep-12 18:31N 52°10' W 005°50'917.3
2017-Sep-12 18:01N 52°12' W 006°03'917.4
2017-Sep-12 17:30N 52°15' W 006°17'2 4.6
2017-Sep-12 17:00N 52°15' W 006°20'0 0.0
2017-Sep-12 16:30N 52°15' W 006°20'0 0.0
2017-Sep-12 16:00N 52°15' W 006°20'0 0.1
2017-Sep-12 15:30N 52°15' W 006°20'611.1
2017-Sep-12 15:00N 52°14' W 006°12'918.3
2017-Sep-12 14:31N 52°12' W 005°57'917.9
2017-Sep-12 14:00N 52°09' W 005°43'1 0.1
2017-Sep-12 08:25N 52°09' W 005°41'718.0
2017-Sep-12 08:01N 52°11' W 005°53'918.1
2017-Sep-12 07:31N 52°13' W 006°07'816.9
2017-Sep-12 07:01N 52°15' W 006°20'0 0.4
2017-Sep-12 06:29N 52°15' W 006°20'0 0.0
2017-Sep-12 05:59N 52°15' W 006°20'0 0.0
2017-Sep-12 05:29N 52°15' W 006°20'0 0.0
2017-Sep-12 04:59N 52°15' W 006°20'0 0.0
2017-Sep-12 04:30N 52°15' W 006°20'0 0.0
2017-Sep-12 04:00N 52°15' W 006°20'0 0.0
2017-Sep-12 03:30N 52°15' W 006°20'0 0.0
2017-Sep-12 03:00N 52°15' W 006°20'4 8.2
2017-Sep-12 02:30N 52°14' W 006°14'815.9
2017-Sep-12 02:00N 52°12' W 006°01'612.4
2017-Sep-12 01:30N 52°13' W 005°51'713.0
2017-Sep-12 01:00N 52°10' W 005°42'3 0.5
2017-Sep-11 18:55N 52°08' W 005°37'717.4
2017-Sep-11 18:30N 52°10' W 005°48'917.4
2017-Sep-11 18:01N 52°12' W 006°02'917.5
2017-Sep-11 17:30N 52°14' W 006°16'3 5.6
2017-Sep-11 17:01N 52°15' W 006°20'0 0.0
2017-Sep-11 16:30N 52°15' W 006°20'0 0.0
2017-Sep-11 16:00N 52°15' W 006°20'2 3.4
2017-Sep-11 15:31N 52°15' W 006°17'816.7
2017-Sep-11 15:01N 52°12' W 006°04'917.1
2017-Sep-11 14:31N 52°11' W 005°51'916.7
2017-Sep-11 13:58N 52°08' W 005°37'3 0.7
2017-Sep-11 09:07N 52°10' W 005°41'218.0
2017-Sep-11 09:00N 52°10' W 005°45'917.6
2017-Sep-11 08:31N 52°12' W 005°59'918.1
2017-Sep-11 08:00N 52°14' W 006°13'5 9.1
2017-Sep-11 07:31N 52°15' W 006°20'0 0.0
2017-Sep-11 07:01N 52°15' W 006°20'0 0.0
2017-Sep-11 06:30N 52°15' W 006°20'0 0.0
2017-Sep-11 06:01N 52°15' W 006°20'0 0.0
2017-Sep-11 05:31N 52°15' W 006°20'0 0.0
2017-Sep-11 05:00N 52°15' W 006°20'0 0.0
2017-Sep-11 04:30N 52°15' W 006°20'0 0.0
2017-Sep-11 04:00N 52°15' W 006°20'2 4.1
2017-Sep-11 03:30N 52°15' W 006°17'714.5
2017-Sep-11 03:01N 52°18' W 006°06'815.5
2017-Sep-11 02:30N 52°23' W 005°58'612.5
2017-Sep-11 02:00N 52°25' W 005°48'713.3
2017-Sep-11 01:30N 52°23' W 005°38'14 2.0
2017-Sep-10 18:27N 52°09' W 005°41'817.5
2017-Sep-10 18:00N 52°11' W 005°53'917.8
2017-Sep-10 17:30N 52°13' W 006°07'917.2
2017-Sep-10 17:01N 52°15' W 006°20'0 0.3
2017-Sep-10 16:30N 52°15' W 006°20'0 0.0
2017-Sep-10 16:00N 52°15' W 006°20'0 0.8
2017-Sep-10 15:30N 52°16' W 006°20'815.8
2017-Sep-10 15:00N 52°13' W 006°08'1716.8
2017-Sep-10 14:00N 52°09' W 005°41'1 0.2
2017-Sep-10 08:22N 52°09' W 005°40'918.9
2017-Sep-10 07:55N 52°11' W 005°54'818.9
2017-Sep-10 07:30N 52°13' W 006°06'917.7
2017-Sep-10 07:00N 52°16' W 006°19'1 1.3
2017-Sep-10 06:30N 52°15' W 006°20'0 0.0
2017-Sep-10 06:00N 52°15' W 006°20'0 0.0
2017-Sep-10 05:30N 52°15' W 006°20'0 0.0
2017-Sep-10 05:00N 52°15' W 006°20'0 0.0
2017-Sep-10 04:30N 52°15' W 006°20'0 0.0
2017-Sep-10 04:00N 52°15' W 006°20'0 0.0
2017-Sep-10 03:30N 52°15' W 006°20'1 2.7
2017-Sep-10 03:01N 52°15' W 006°18'917.3
2017-Sep-10 02:31N 52°13' W 006°05'918.2
2017-Sep-10 02:01N 52°10' W 005°50'  
Track history (hours):
 
Tides and Currents Weather Stations Pressure Air Temp Water Temp Dewpoint Dewpoint Depression Visibility Wind Speed Wind Dir Waves Ship Positions

Stena Europe

Operator: Stena Line

Last reported at 2017-Sep-20 00:23 UTC. Time now 2017-Sep-20 00:35 UTC.
Position N 52°08' W 005°32'.

Length 149 m; draft 6 m.

Type: Passenger vessel. MMSI: 235004539.

Date/timePositionNaut miles runAvg speedWind from/ knotsBaromVisibWave heightAir tempDewpointWater temp
2017-Sep-20 00:23N 52°08' W 005°32'2 0.4
2017-Sep-19 18:59N 52°08' W 005°35'1018.4
2017-Sep-19 18:27N 52°10' W 005°51'818.4
2017-Sep-19 18:00N 52°12' W 006°03'917.8
2017-Sep-19 17:30N 52°15' W 006°17'2 3.9
2017-Sep-19 17:00N 52°15' W 006°20'0 0.0
2017-Sep-19 16:30N 52°15' W 006°20'0 0.0
2017-Sep-19 16:00N 52°15' W 006°20'0 0.0
2017-Sep-19 15:30N 52°15' W 006°20'3 6.5
2017-Sep-19 15:01N 52°14' W 006°15'918.2
2017-Sep-19 14:30N 52°12' W 006°01'918.5
2017-Sep-19 14:01N 52°10' W 005°46'5 0.9
2017-Sep-19 08:34N 52°09' W 005°38'218.2
2017-Sep-19 08:26N 52°09' W 005°42'818.3
2017-Sep-19 08:00N 52°11' W 005°55'918.4
2017-Sep-19 07:31N 52°13' W 006°09'714.2
2017-Sep-19 07:00N 52°15' W 006°20'0 0.0
2017-Sep-19 06:30N 52°15' W 006°20'0 0.0
2017-Sep-19 06:00N 52°15' W 006°20'0 0.0
2017-Sep-19 05:30N 52°15' W 006°20'0 0.0
2017-Sep-19 05:00N 52°15' W 006°20'0 0.0
2017-Sep-19 04:30N 52°15' W 006°20'0 0.0
2017-Sep-19 04:00N 52°15' W 006°20'0 0.0
2017-Sep-19 03:30N 52°15' W 006°20'0 0.0
2017-Sep-19 03:00N 52°15' W 006°20'510.7
2017-Sep-19 02:30N 52°14' W 006°12'714.1
2017-Sep-19 02:01N 52°12' W 006°01'4 8.7
2017-Sep-19 01:30N 52°11' W 005°54'510.6
2017-Sep-19 01:00N 52°10' W 005°45'713.5
2017-Sep-19 00:31N 52°08' W 005°35'714.0
2017-Sep-19 00:00N 52°06' W 005°24'1 0.3
2017-Sep-18 19:10N 52°07' W 005°25'319.3
2017-Sep-18 19:00N 52°07' W 005°31'918.0
2017-Sep-18 18:31N 52°09' W 005°45'816.6
2017-Sep-18 18:00N 52°12' W 005°58'816.7
2017-Sep-18 17:31N 52°14' W 006°11'611.9
2017-Sep-18 17:00N 52°15' W 006°20'0 0.0
2017-Sep-18 16:30N 52°15' W 006°20'0 0.0
2017-Sep-18 16:00N 52°15' W 006°20'0 0.0
2017-Sep-18 15:30N 52°15' W 006°20'2 4.9
2017-Sep-18 15:00N 52°15' W 006°16'918.2
2017-Sep-18 14:30N 52°13' W 006°02'918.5
2017-Sep-18 14:00N 52°10' W 005°47'1 0.2
2017-Sep-18 08:19N 52°10' W 005°45'618.4
2017-Sep-18 07:59N 52°11' W 005°55'918.5
2017-Sep-18 07:30N 52°13' W 006°09'714.2
2017-Sep-18 07:01N 52°15' W 006°20'0 0.0
2017-Sep-18 06:31N 52°15' W 006°20'0 0.0
2017-Sep-18 06:01N 52°15' W 006°20'0 0.0
2017-Sep-18 05:31N 52°15' W 006°20'0 0.0
2017-Sep-18 05:01N 52°15' W 006°20'0 0.0
2017-Sep-18 04:30N 52°15' W 006°20'0 0.0
2017-Sep-18 04:00N 52°15' W 006°20'0 0.0
2017-Sep-18 03:30N 52°15' W 006°20'0 0.0
2017-Sep-18 03:01N 52°15' W 006°20'5 9.3
2017-Sep-18 02:31N 52°14' W 006°13'816.3
2017-Sep-18 02:00N 52°12' W 005°60'816.2
2017-Sep-18 01:30N 52°10' W 005°47'4 0.6
2017-Sep-17 18:36N 52°09' W 005°40'315.9
2017-Sep-17 18:25N 52°10' W 005°45'615.7
2017-Sep-17 18:00N 52°11' W 005°55'816.0
2017-Sep-17 17:30N 52°13' W 006°08'816.2
2017-Sep-17 17:01N 52°16' W 006°20'0 0.6
2017-Sep-17 16:30N 52°15' W 006°20'0 0.0
2017-Sep-17 16:00N 52°15' W 006°20'0 0.0
2017-Sep-17 15:30N 52°15' W 006°20'1 2.0
2017-Sep-17 15:00N 52°16' W 006°19'918.2
2017-Sep-17 14:30N 52°13' W 006°04'918.7
2017-Sep-17 14:00N 52°11' W 005°50'0 0.1
2017-Sep-17 08:04N 52°10' W 005°50'218.0
2017-Sep-17 07:57N 52°11' W 005°53'818.3
2017-Sep-17 07:30N 52°13' W 006°06'917.9
2017-Sep-17 07:00N 52°16' W 006°19'1 1.1
2017-Sep-17 06:30N 52°15' W 006°20'0 0.0
2017-Sep-17 06:00N 52°15' W 006°20'0 0.0
2017-Sep-17 05:30N 52°15' W 006°20'0 0.0
2017-Sep-17 05:00N 52°15' W 006°20'0 0.0
2017-Sep-17 04:30N 52°15' W 006°20'0 0.0
2017-Sep-17 04:00N 52°15' W 006°20'0 0.0
2017-Sep-17 03:30N 52°15' W 006°20'0 0.0
2017-Sep-17 03:00N 52°15' W 006°20'510.7
2017-Sep-17 02:30N 52°14' W 006°12'713.3
2017-Sep-17 02:00N 52°17' W 006°02'713.5
2017-Sep-17 01:30N 52°19' W 005°52'612.8
2017-Sep-17 01:00N 52°17' W 005°42'713.4
2017-Sep-17 00:29N 52°13' W 005°32'12 2.0
2017-Sep-16 18:21N 52°10' W 005°51'818.3
2017-Sep-16 17:54N 52°13' W 006°04'718.4
2017-Sep-16 17:30N 52°14' W 006°15'3 6.3
2017-Sep-16 17:01N 52°15' W 006°20'0 0.0
2017-Sep-16 16:31N 52°15' W 006°20'0 0.0
2017-Sep-16 16:00N 52°15' W 006°20'0 0.0
2017-Sep-16 15:30N 52°15' W 006°20'611.2
2017-Sep-16 15:00N 52°14' W 006°11'917.8
2017-Sep-16 14:30N 52°12' W 005°57'918.2
2017-Sep-16 14:00N 52°10' W 005°43'4 0.7
2017-Sep-16 08:18N 52°11' W 005°49'518.2
2017-Sep-16 08:00N 52°12' W 005°57'918.1
2017-Sep-16 07:30N 52°14' W 006°12'510.8
2017-Sep-16 07:00N 52°15' W 006°20'0 0.0
2017-Sep-16 06:30N 52°15' W 006°20'0 0.0
2017-Sep-16 06:00N 52°15' W 006°20'0 0.0
2017-Sep-16 05:30N 52°15' W 006°20'0 0.0
2017-Sep-16 05:00N 52°15' W 006°20'0 0.0
2017-Sep-16 04:30N 52°15' W 006°20'0 0.0
2017-Sep-16 04:00N 52°15' W 006°20'0 0.0
2017-Sep-16 03:30N 52°15' W 006°20'0 0.1
2017-Sep-16 03:00N 52°15' W 006°20'611.8
2017-Sep-16 02:30N 52°14' W 006°11'612.4
2017-Sep-16 02:00N 52°12' W 006°01'612.9
2017-Sep-16 01:30N 52°11' W 005°51'613.1
2017-Sep-16 01:00N 52°09' W 005°41'3 0.4
2017-Sep-15 18:40N 52°09' W 005°45'318.7
2017-Sep-15 18:30N 52°10' W 005°50'918.4
2017-Sep-15 18:00N 52°13' W 006°04'918.3
2017-Sep-15 17:30N 52°15' W 006°18'1 2.1
2017-Sep-15 17:01N 52°15' W 006°20'0 0.0
2017-Sep-15 16:31N 52°15' W 006°20'0 0.2
2017-Sep-15 16:01N 52°15' W 006°20'713.0
2017-Sep-15 15:31N 52°14' W 006°10'917.3
2017-Sep-15 15:01N 52°12' W 005°56'917.9
2017-Sep-15 14:31N 52°10' W 005°42'3 0.4
2017-Sep-15 08:33N 52°09' W 005°38'117.4
2017-Sep-15 08:30N 52°09' W 005°39'917.4
2017-Sep-15 08:00N 52°11' W 005°53'917.5
2017-Sep-15 07:31N 52°13' W 006°07'917.2
2017-Sep-15 07:00N 52°16' W 006°20'0 0.5
2017-Sep-15 06:30N 52°15' W 006°20'0 0.0
2017-Sep-15 06:00N 52°15' W 006°20'0 0.0
2017-Sep-15 05:30N 52°15' W 006°20'0 0.0
2017-Sep-15 05:00N 52°15' W 006°20'0 0.0
2017-Sep-15 04:30N 52°15' W 006°20'0 0.0
2017-Sep-15 04:00N 52°15' W 006°20'0 0.0
2017-Sep-15 03:30N 52°15' W 006°20'0 0.0
2017-Sep-15 03:00N 52°15' W 006°20'5 9.8
2017-Sep-15 02:30N 52°14' W 006°13'714.5
2017-Sep-15 02:00N 52°12' W 006°01'714.4
2017-Sep-15 01:30N 52°10' W 005°50'714.2
2017-Sep-15 01:00N 52°09' W 005°38'3 0.5
2017-Sep-14 18:36N 52°09' W 005°43'218.3
2017-Sep-14 18:30N 52°10' W 005°46'918.2
2017-Sep-14 18:00N 52°12' W 006°00'918.2
2017-Sep-14 17:30N 52°14' W 006°14'4 7.4
2017-Sep-14 17:00N 52°15' W 006°20'0 0.0
2017-Sep-14 16:30N 52°15' W 006°20'0 0.0
2017-Sep-14 16:00N 52°15' W 006°20'1 1.3
2017-Sep-14 15:30N 52°16' W 006°19'816.8
2017-Sep-14 15:01N 52°13' W 006°06'917.6
2017-Sep-14 14:31N 52°11' W 005°52'917.3
2017-Sep-14 14:00N 52°09' W 005°39'2 0.3
2017-Sep-14 08:41N 52°08' W 005°36'317.4
2017-Sep-14 08:29N 52°09' W 005°41'817.4
2017-Sep-14 08:01N 52°11' W 005°55'917.3
2017-Sep-14 07:31N 52°13' W 006°08'815.1
2017-Sep-14 07:00N 52°15' W 006°20'0 0.0
2017-Sep-14 06:30N 52°15' W 006°20'0 0.0
2017-Sep-14 06:00N 52°15' W 006°20'0 0.0
2017-Sep-14 05:30N 52°15' W 006°20'0 0.0
2017-Sep-14 05:00N 52°15' W 006°20'0 0.0
2017-Sep-14 04:30N 52°15' W 006°20'0 0.0
2017-Sep-14 04:00N 52°15' W 006°20'0 0.0
2017-Sep-14 03:30N 52°15' W 006°20'0 0.0
2017-Sep-14 03:00N 52°15' W 006°20'4 8.2
2017-Sep-14 02:30N 52°14' W 006°14'815.7
2017-Sep-14 02:01N 52°12' W 006°01'715.0
2017-Sep-14 01:31N 52°10' W 005°50'714.1
2017-Sep-14 01:00N 52°09' W 005°38'2 0.3
2017-Sep-13 18:23N 52°09' W 005°41'718.0
2017-Sep-13 18:00N 52°11' W 005°52'918.3
2017-Sep-13 17:30N 52°13' W 006°06'917.9
2017-Sep-13 17:00N 52°16' W 006°20'0 0.6
2017-Sep-13 16:30N 52°15' W 006°20'0 0.0
2017-Sep-13 16:00N 52°15' W 006°20'2 3.4
2017-Sep-13 15:31N 52°15' W 006°17'816.8
2017-Sep-13 15:01N 52°15' W 006°04'816.3
2017-Sep-13 14:30N 52°14' W 005°50'816.3
2017-Sep-13 14:00N 52°12' W 005°38'4 0.6
2017-Sep-13 08:33N 52°09' W 005°39'117.2
2017-Sep-13 08:28N 52°09' W 005°41'816.7
2017-Sep-13 08:00N 52°11' W 005°54'816.8
2017-Sep-13 07:30N 52°13' W 006°07'917.3
2017-Sep-13 07:01N 52°16' W 006°20'0 0.5
2017-Sep-13 06:30N 52°15' W 006°20'0 0.0
2017-Sep-13 06:00N 52°15' W 006°20'0 0.0
2017-Sep-13 05:31N 52°15' W 006°20'0 0.0
2017-Sep-13 05:00N 52°15' W 006°20'0 0.0
2017-Sep-13 04:30N 52°15' W 006°20'0 0.4
2017-Sep-13 04:01N 52°15' W 006°20'714.5
2017-Sep-13 03:30N 52°14' W 006°09'816.1
2017-Sep-13 03:00N 52°15' W 005°56'612.7
2017-Sep-13 02:30N 52°18' W 005°46'611.9
2017-Sep-13 02:00N 52°21' W 005°38'13 1.9
2017-Sep-12 19:02N 52°08' W 005°35'216.9
2017-Sep-12 18:56N 52°08' W 005°38'717.0
2017-Sep-12 18:31N 52°10' W 005°50'917.3
2017-Sep-12 18:01N 52°12' W 006°03'917.4
2017-Sep-12 17:30N 52°15' W 006°17'2 4.6
2017-Sep-12 17:00N 52°15' W 006°20'0 0.0
2017-Sep-12 16:30N 52°15' W 006°20'0 0.0
2017-Sep-12 16:00N 52°15' W 006°20'0 0.1
2017-Sep-12 15:30N 52°15' W 006°20'611.1
2017-Sep-12 15:00N 52°14' W 006°12'918.3
2017-Sep-12 14:31N 52°12' W 005°57'917.9
2017-Sep-12 14:00N 52°09' W 005°43'1 0.1
2017-Sep-12 08:25N 52°09' W 005°41'718.0
2017-Sep-12 08:01N 52°11' W 005°53'918.1
2017-Sep-12 07:31N 52°13' W 006°07'816.9
2017-Sep-12 07:01N 52°15' W 006°20'0 0.4
2017-Sep-12 06:29N 52°15' W 006°20'0 0.0
2017-Sep-12 05:59N 52°15' W 006°20'0 0.0
2017-Sep-12 05:29N 52°15' W 006°20'0 0.0
2017-Sep-12 04:59N 52°15' W 006°20'0 0.0
2017-Sep-12 04:30N 52°15' W 006°20'0 0.0
2017-Sep-12 04:00N 52°15' W 006°20'0 0.0
2017-Sep-12 03:30N 52°15' W 006°20'0 0.0
2017-Sep-12 03:00N 52°15' W 006°20'4 8.2
2017-Sep-12 02:30N 52°14' W 006°14'815.9
2017-Sep-12 02:00N 52°12' W 006°01'612.4
2017-Sep-12 01:30N 52°13' W 005°51'713.0
2017-Sep-12 01:00N 52°10' W 005°42'3 0.5
2017-Sep-11 18:55N 52°08' W 005°37'717.4
2017-Sep-11 18:30N 52°10' W 005°48'917.4
2017-Sep-11 18:01N 52°12' W 006°02'917.5
2017-Sep-11 17:30N 52°14' W 006°16'3 5.6
2017-Sep-11 17:01N 52°15' W 006°20'0 0.0
2017-Sep-11 16:30N 52°15' W 006°20'0 0.0
2017-Sep-11 16:00N 52°15' W 006°20'2 3.4
2017-Sep-11 15:31N 52°15' W 006°17'816.7
2017-Sep-11 15:01N 52°12' W 006°04'917.1
2017-Sep-11 14:31N 52°11' W 005°51'916.7
2017-Sep-11 13:58N 52°08' W 005°37'3 0.7
2017-Sep-11 09:07N 52°10' W 005°41'218.0
2017-Sep-11 09:00N 52°10' W 005°45'917.6
2017-Sep-11 08:31N 52°12' W 005°59'918.1
2017-Sep-11 08:00N 52°14' W 006°13'5 9.1
2017-Sep-11 07:31N 52°15' W 006°20'0 0.0
2017-Sep-11 07:01N 52°15' W 006°20'0 0.0
2017-Sep-11 06:30N 52°15' W 006°20'0 0.0
2017-Sep-11 06:01N 52°15' W 006°20'0 0.0
2017-Sep-11 05:31N 52°15' W 006°20'0 0.0
2017-Sep-11 05:00N 52°15' W 006°20'0 0.0
2017-Sep-11 04:30N 52°15' W 006°20'0 0.0
2017-Sep-11 04:00N 52°15' W 006°20'2 4.1
2017-Sep-11 03:30N 52°15' W 006°17'714.5
2017-Sep-11 03:01N 52°18' W 006°06'815.5
2017-Sep-11 02:30N 52°23' W 005°58'612.5
2017-Sep-11 02:00N 52°25' W 005°48'713.3
2017-Sep-11 01:30N 52°23' W 005°38'14 2.0
2017-Sep-10 18:27N 52°09' W 005°41'817.5
2017-Sep-10 18:00N 52°11' W 005°53'917.8
2017-Sep-10 17:30N 52°13' W 006°07'917.2
2017-Sep-10 17:01N 52°15' W 006°20'0 0.3
2017-Sep-10 16:30N 52°15' W 006°20'0 0.0
2017-Sep-10 16:00N 52°15' W 006°20'0 0.8
2017-Sep-10 15:30N 52°16' W 006°20'815.8
2017-Sep-10 15:00N 52°13' W 006°08'1716.8
2017-Sep-10 14:00N 52°09' W 005°41'1 0.2
2017-Sep-10 08:22N 52°09' W 005°40'918.9
2017-Sep-10 07:55N 52°11' W 005°54'818.9
2017-Sep-10 07:30N 52°13' W 006°06'917.7
2017-Sep-10 07:00N 52°16' W 006°19'1 1.3
2017-Sep-10 06:30N 52°15' W 006°20'0 0.0
2017-Sep-10 06:00N 52°15' W 006°20'0 0.0
2017-Sep-10 05:30N 52°15' W 006°20'0 0.0
2017-Sep-10 05:00N 52°15' W 006°20'0 0.0
2017-Sep-10 04:30N 52°15' W 006°20'0 0.0
2017-Sep-10 04:00N 52°15' W 006°20'0 0.0
2017-Sep-10 03:30N 52°15' W 006°20'1 2.7
2017-Sep-10 03:01N 52°15' W 006°18'917.3
2017-Sep-10 02:31N 52°13' W 006°05'918.2
2017-Sep-10 02:01N 52°10' W 005°50'  

Dump ship's entire track history